Time;durP1;ratioP1;P1;durP2;ratioP2;P2;SDS_P1;SDS_P2;PMS_P1;PMS_P2;Temp;Humidity;BMP_temperature;BMP_pressure;BME280_temperature;BME280_humidity;BME280_pressure;Samples;Min_cycle;Max_cycle;Signal;HPM_P1;HPM_P2
2023/10/23 00:01:05;;;;;;;9.07;6.17;;;;;;;7.96;100.00;100573.34;4896202;28;20420;-75
2023/10/23 00:03:31;;;;;;;10.00;4.27;;;;;;;8.02;100.00;100583.38;4887051;28;20107;-75
2023/10/23 00:05:56;;;;;;;13.83;5.90;;;;;;;7.96;100.00;100571.53;4903049;28;20040;-75
2023/10/23 00:08:21;;;;;;;11.33;5.53;;;;;;;7.97;100.00;100583.00;4918441;28;20135;-75
2023/10/23 00:10:47;;;;;;;9.07;5.30;;;;;;;7.94;100.00;100586.78;4902536;28;20028;-75
2023/10/23 00:13:12;;;;;;;7.03;4.80;;;;;;;7.99;100.00;100589.00;4886234;28;20128;-75
2023/10/23 00:15:39;;;;;;;9.43;5.17;;;;;;;7.98;100.00;100592.63;4926045;28;20086;-75
2023/10/23 00:18:04;;;;;;;9.57;5.15;;;;;;;7.99;100.00;100592.50;4916347;28;20351;-75
2023/10/23 00:20:30;;;;;;;11.80;4.80;;;;;;;7.97;100.00;100589.16;4907106;29;20089;-75
2023/10/23 00:22:55;;;;;;;6.57;3.87;;;;;;;7.93;100.00;100587.75;4883714;28;20535;-74
2023/10/23 00:25:20;;;;;;;8.20;4.97;;;;;;;7.99;100.00;100587.19;4918114;29;20489;-76
2023/10/23 00:27:46;;;;;;;6.70;4.40;;;;;;;7.90;100.00;100588.06;4922642;28;20299;-75
2023/10/23 00:30:11;;;;;;;8.97;4.83;;;;;;;7.99;100.00;100597.81;4923725;28;20036;-75
2023/10/23 00:32:37;;;;;;;8.25;4.10;;;;;;;7.94;100.00;100588.63;4897961;28;20111;-75
2023/10/23 00:35:03;;;;;;;8.82;4.32;;;;;;;7.92;100.00;100579.97;4917194;29;20063;-75
2023/10/23 00:37:28;;;;;;;8.20;4.45;;;;;;;7.99;100.00;100592.50;4909936;28;20412;-75
2023/10/23 00:39:53;;;;;;;6.87;4.20;;;;;;;7.94;100.00;100581.47;4894291;28;20028;-75
2023/10/23 00:42:19;;;;;;;4.43;3.88;;;;;;;7.91;100.00;100587.06;4917865;28;20083;-76
2023/10/23 00:44:44;;;;;;;10.13;4.27;;;;;;;7.93;100.00;100587.75;4925798;29;20087;-74
2023/10/23 00:47:10;;;;;;;8.50;4.17;;;;;;;7.88;100.00;100587.38;4894388;28;20093;-75
2023/10/23 00:49:36;;;;;;;8.07;4.15;;;;;;;7.90;100.00;100590.72;4917984;29;20028;-75
2023/10/23 00:52:02;;;;;;;10.35;4.47;;;;;;;7.92;100.00;100599.41;4891676;29;20041;-75
2023/10/23 00:54:32;;;;;;;7.18;4.43;;;;;;;7.92;100.00;100602.06;4925552;28;20036;-75
2023/10/23 00:56:58;;;;;;;11.07;5.00;;;;;;;7.91;100.00;100605.69;4906885;29;20536;-75
2023/10/23 00:59:24;;;;;;;8.27;4.88;;;;;;;7.93;100.00;100606.38;4928806;29;20040;-74
2023/10/23 01:01:49;;;;;;;9.57;4.68;;;;;;;7.84;100.00;100601.94;4928755;29;20035;-75
2023/10/23 01:04:16;;;;;;;7.88;4.30;;;;;;;7.80;100.00;100595.28;4918317;28;20492;-75
2023/10/23 01:06:41;;;;;;;9.48;4.63;;;;;;;7.68;100.00;100583.16;4915484;28;20063;-76
2023/10/23 01:09:07;;;;;;;8.52;4.97;;;;;;;7.54;100.00;100585.34;4927132;29;20040;-76
2023/10/23 01:11:36;;;;;;;12.13;5.10;;;;;;;7.55;100.00;100586.16;4922558;29;20424;-75
2023/10/23 01:14:01;;;;;;;10.00;5.20;;;;;;;7.53;100.00;100596.91;4897011;29;20435;-76
2023/10/23 01:16:27;;;;;;;6.67;4.73;;;;;;;7.55;100.00;100612.72;4928447;29;20031;-75
2023/10/23 01:19:12;;;;;;;7.00;4.70;;;;;;;7.53;100.00;100607.56;4928497;29;20040;-75
2023/10/23 01:21:37;;;;;;;10.18;4.65;;;;;;;7.49;100.00;100614.16;5029976;28;20068;-75
2023/10/23 01:24:09;;;;;;;10.13;4.60;;;;;;;7.49;100.00;100614.16;5016418;28;20061;-75
2023/10/23 01:26:34;;;;;;;7.45;5.22;;;;;;;7.42;100.00;100607.72;4981852;28;20412;-75
2023/10/23 01:28:59;;;;;;;12.03;5.03;;;;;;;7.37;100.00;100615.28;5030084;28;20025;-77
2023/10/23 01:31:25;;;;;;;8.83;5.00;;;;;;;7.36;100.00;100616.28;5014022;28;20795;-75
2023/10/23 01:33:50;;;;;;;8.97;5.27;;;;;;;7.38;100.00;100624.97;5030509;28;20056;-75
2023/10/23 01:36:15;;;;;;;8.00;4.20;;;;;;;7.23;100.00;100605.13;5013413;28;20124;-75
2023/10/23 01:38:43;;;;;;;12.30;4.93;;;;;;;7.05;100.00;100589.97;5013704;28;20568;-76
2023/10/23 01:41:08;;;;;;;10.73;5.35;;;;;;;6.81;100.00;100561.22;5011818;28;20183;-75
2023/10/23 01:43:33;;;;;;;6.13;4.20;;;;;;;6.69;100.00;100562.38;5013872;28;20109;-74
2023/10/23 01:45:59;;;;;;;6.30;4.80;;;;;;;6.58;100.00;100550.13;5013375;28;20038;-75
2023/10/23 01:48:24;;;;;;;8.90;4.72;;;;;;;6.51;100.00;100559.63;5029700;28;20048;-75
2023/10/23 01:50:50;;;;;;;6.23;4.03;;;;;;;6.43;100.00;100552.34;5030126;28;20033;-76
2023/10/23 01:53:15;;;;;;;11.02;5.22;;;;;;;6.36;100.00;100548.56;4931230;28;20048;-76
2023/10/23 01:55:41;;;;;;;13.97;4.83;;;;;;;6.44;100.00;100577.03;4927846;29;20102;-75
2023/10/23 01:58:06;;;;;;;8.85;4.80;;;;;;;6.30;100.00;100568.53;4927340;28;20044;-74
2023/10/23 02:00:31;;;;;;;10.20;4.93;;;;;;;6.23;100.00;100572.72;4927877;28;20502;-76
2023/10/23 02:02:57;;;;;;;10.17;4.43;;;;;;;6.20;100.00;100588.06;4926935;28;20067;-75
2023/10/23 02:05:22;;;;;;;10.97;6.70;;;;;;;6.11;100.00;100589.72;4927557;28;20032;-74
2023/10/23 02:07:47;;;;;;;12.20;6.97;;;;;;;6.12;100.00;100596.69;4895751;28;20584;-75
2023/10/23 02:10:13;;;;;;;10.00;5.27;;;;;;;6.04;100.00;100599.19;4927756;29;20635;-76
2023/10/23 02:12:38;;;;;;;13.13;5.13;;;;;;;6.12;100.00;100615.25;4927831;28;20024;-76
2023/10/23 02:15:06;;;;;;;9.35;5.57;;;;;;;6.14;100.00;100631.88;4927557;29;20063;-76
2023/10/23 02:17:31;;;;;;;11.85;5.82;;;;;;;6.29;100.00;100651.69;4923572;29;20031;-75
2023/10/23 02:19:58;;;;;;;11.77;6.95;;;;;;;6.38;100.00;100667.78;4923823;28;20040;-75
2023/10/23 02:22:24;;;;;;;13.07;6.17;;;;;;;6.43;100.00;100679.63;4920623;29;20024;-75
2023/10/23 02:24:49;;;;;;;12.80;6.85;;;;;;;6.32;100.00;100666.47;4920102;28;20119;-75
2023/10/23 02:27:14;;;;;;;11.05;5.60;;;;;;;6.28;100.00;100671.25;4926880;28;20032;-74
2023/10/23 02:29:40;;;;;;;7.90;5.43;;;;;;;6.16;100.00;100663.53;4927606;28;20043;-76
2023/10/23 02:32:07;;;;;;;12.07;4.43;;;;;;;5.98;100.00;100653.59;4922282;28;20852;-76
2023/10/23 02:34:35;;;;;;;7.22;4.20;;;;;;;5.85;100.00;100634.41;4927392;29;20086;-76
2023/10/23 02:37:00;;;;;;;18.70;7.45;;;;;;;5.79;100.00;100633.13;4926929;29;20715;-75
2023/10/23 02:39:25;;;;;;;10.83;6.13;;;;;;;6.03;100.00;100658.47;4912799;28;20111;-75
2023/10/23 02:41:51;;;;;;;19.48;7.60;;;;;;;6.04;100.00;100676.03;4927403;28;20481;-75
2023/10/23 02:44:16;;;;;;;11.40;6.93;;;;;;;6.18;100.00;100683.66;4927257;29;20101;-76
2023/10/23 02:46:42;;;;;;;10.67;6.20;;;;;;;6.07;100.00;100687.22;4927039;29;20731;-74
2023/10/23 02:49:07;;;;;;;9.53;6.10;;;;;;;5.99;100.00;100678.25;4926931;28;20047;-74
2023/10/23 02:51:32;;;;;;;11.20;5.47;;;;;;;5.90;100.00;100675.44;4927355;29;20485;-76
2023/10/23 02:53:58;;;;;;;9.00;5.57;;;;;;;5.83;100.00;100666.34;4927182;28;20036;-75
2023/10/23 02:56:24;;;;;;;;;;;;;;;5.96;100.00;100682.03;4927207;28;20036;-76
2023/10/23 02:58:49;;;;;;;10.52;5.82;;;;;;;5.93;100.00;100687.56;4920527;28;20287;-75
2023/10/23 03:01:20;;;;;;;10.33;6.63;;;;;;;6.01;100.00;100697.53;4907428;29;20039;-75
2023/10/23 03:03:46;;;;;;;19.58;7.35;;;;;;;5.94;100.00;100689.28;4926860;28;20036;-75
2023/10/23 03:06:12;;;;;;;12.77;7.03;;;;;;;5.80;100.00;100673.72;4926661;29;20107;-76
2023/10/23 03:08:38;;;;;;;10.88;6.40;;;;;;;5.77;100.00;100677.47;4921270;28;20131;-76
2023/10/23 03:11:05;;;;;;;11.18;6.03;;;;;;;5.76;100.00;100680.22;4924271;28;20485;-75
2023/10/23 03:13:31;;;;;;;7.38;5.93;;;;;;;5.72;100.00;100682.31;4926954;29;20082;-75
2023/10/23 03:15:56;;;;;;;15.80;7.15;;;;;;;5.63;100.00;100676.00;4926480;29;20060;-76
2023/10/23 03:18:22;;;;;;;12.33;6.93;;;;;;;5.60;100.00;100675.44;4926155;28;20064;-76
2023/10/23 03:20:47;;;;;;;11.10;6.20;;;;;;;5.59;100.00;100671.09;4926538;29;20534;-75
2023/10/23 03:23:12;;;;;;;20.43;9.27;;;;;;;5.62;100.00;100690.22;4921524;28;20068;-76
2023/10/23 03:25:38;;;;;;;11.90;7.00;;;;;;;5.49;100.00;100690.44;4925110;29;20409;-74
2023/10/23 03:28:03;;;;;;;9.17;5.93;;;;;;;5.50;100.00;100692.13;4922154;28;20047;-75
2023/10/23 03:30:29;;;;;;;12.48;6.55;;;;;;;5.43;100.00;100685.66;4925346;28;20021;-76
2023/10/23 03:32:54;;;;;;;10.10;6.03;;;;;;;5.49;100.00;100685.13;4923277;29;20044;-74
2023/10/23 03:35:19;;;;;;;9.23;5.37;;;;;;;5.41;100.00;100681.47;4911075;29;20280;-74
2023/10/23 03:37:45;;;;;;;8.65;5.72;;;;;;;5.37;100.00;100680.88;4926256;29;20036;-76
2023/10/23 03:40:11;;;;;;;10.90;6.07;;;;;;;5.36;100.00;100684.53;4912014;28;20028;-75
2023/10/23 03:42:38;;;;;;;9.80;5.88;;;;;;;5.29;100.00;100675.38;4926589;28;20551;-76
2023/10/23 03:45:06;;;;;;;11.13;6.28;;;;;;;5.22;100.00;100671.59;4926403;28;20038;-76
2023/10/23 03:47:32;;;;;;;8.57;5.50;;;;;;;5.27;100.00;100686.13;4925863;29;20086;-75
2023/10/23 03:49:58;;;;;;;13.97;6.97;;;;;;;5.16;100.00;100666.81;4926439;29;20036;-74
2023/10/23 03:52:23;;;;;;;9.70;5.87;;;;;;;5.23;100.00;100690.00;4926414;29;20024;-75
2023/10/23 03:54:48;;;;;;;8.77;5.80;;;;;;;5.25;100.00;100682.75;4922126;28;20036;-75
2023/10/23 03:57:14;;;;;;;16.60;7.50;;;;;;;5.26;100.00;100688.91;4925968;28;20304;-75
2023/10/23 03:59:43;;;;;;;10.70;5.43;;;;;;;5.24;100.00;100688.19;4923900;29;20028;-75
2023/10/23 04:02:08;;;;;;;13.68;7.25;;;;;;;5.16;100.00;100677.41;4911088;29;20048;-75
2023/10/23 04:04:34;;;;;;;8.77;5.75;;;;;;;5.13;100.00;100673.22;4926349;29;20078;-75
2023/10/23 04:06:59;;;;;;;10.57;6.60;;;;;;;5.20;100.00;100684.13;4911308;28;20037;-76
2023/10/23 04:09:28;;;;;;;10.53;6.33;;;;;;;5.25;100.00;100687.22;4923002;29;20032;-75
2023/10/23 04:11:54;;;;;;;15.18;7.90;;;;;;;5.30;100.00;100695.63;4910077;28;20028;-76
2023/10/23 04:14:20;;;;;;;;;;;;;;;5.49;100.00;100719.56;4926283;29;20406;-74
2023/10/23 04:16:45;;;;;;;9.20;6.05;;;;;;;5.50;100.00;100715.09;4921644;28;19918;-75
2023/10/23 04:19:11;;;;;;;17.27;6.90;;;;;;;5.47;100.00;100713.53;4925916;28;20158;-75
2023/10/23 04:21:39;;;;;;;13.30;7.88;;;;;;;5.47;100.00;100716.19;4912962;28;20608;-74
2023/10/23 04:24:06;;;;;;;13.77;7.97;;;;;;;5.58;100.00;100725.88;4925320;29;20124;-76
2023/10/23 04:26:31;;;;;;;17.08;9.23;;;;;;;5.65;100.00;100732.34;4920864;29;20502;-76
2023/10/23 04:28:57;;;;;;;17.40;9.52;;;;;;;5.77;100.00;100745.50;4907970;29;20020;-75
2023/10/23 04:31:22;;;;;;;15.53;9.07;;;;;;;5.82;100.00;100754.72;4927604;28;20539;-75
2023/10/23 04:33:47;;;;;;;16.40;8.37;;;;;;;5.89;100.00;100755.88;4914704;28;20274;-75
2023/10/23 04:36:13;;;;;;;16.17;9.57;;;;;;;5.93;100.00;100765.25;4928841;29;20047;-75
2023/10/23 04:38:38;;;;;;;16.53;9.50;;;;;;;6.02;100.00;100762.84;4928983;28;20040;-76
2023/10/23 04:41:03;;;;;;;14.63;9.13;;;;;;;6.02;100.00;100761.00;4929101;29;20059;-75
2023/10/23 04:43:29;;;;;;;14.53;9.20;;;;;;;5.94;100.00;100758.16;4914689;28;20032;-76
2023/10/23 04:45:56;;;;;;;18.10;9.80;;;;;;;5.88;100.00;100754.22;4928807;28;20036;-75
2023/10/23 04:48:22;;;;;;;15.98;9.43;;;;;;;5.96;100.00;100760.69;4928877;28;20071;-75
2023/10/23 04:50:47;;;;;;;23.53;11.20;;;;;;;5.95;100.00;100764.31;4929093;28;20419;-75
2023/10/23 04:53:12;;;;;;;19.77;11.23;;;;;;;6.12;100.00;100779.59;4929037;29;20135;-75
2023/10/23 04:55:39;;;;;;;23.20;10.33;;;;;;;6.18;100.00;100776.44;4928851;29;20040;-75
2023/10/23 04:58:05;;;;;;;23.67;10.73;;;;;;;6.26;100.00;100773.94;4912519;28;20036;-76
2023/10/23 05:00:33;;;;;;;;;;;;;;;6.35;100.00;100782.91;4913267;29;20508;-75
2023/10/23 05:02:59;;;;;;;22.65;11.38;;;;;;;6.32;100.00;100783.16;4906453;28;19942;-76
2023/10/23 05:05:24;;;;;;;19.43;9.77;;;;;;;6.36;100.00;100784.56;4905210;28;20032;-76
2023/10/23 05:07:49;;;;;;;19.97;10.13;;;;;;;6.36;100.00;100789.03;4928443;29;20127;-75
2023/10/23 05:10:15;;;;;;;27.50;12.00;;;;;;;6.39;100.00;100786.97;4928730;29;20250;-76
2023/10/23 05:12:40;;;;;;;20.23;8.90;;;;;;;6.58;100.00;100807.41;4979663;28;20094;-75
2023/10/23 05:15:08;;;;;;;24.43;10.70;;;;;;;6.57;100.00;100803.06;4928329;28;20032;-76
2023/10/23 05:17:33;;;;;;;20.75;11.57;;;;;;;6.65;100.00;100803.25;4908263;29;20047;-75
2023/10/23 05:19:59;;;;;;;21.92;11.68;;;;;;;6.63;100.00;100797.25;4928331;29;20029;-75
2023/10/23 05:22:24;;;;;;;16.87;9.40;;;;;;;6.55;100.00;100789.09;4897054;29;20400;-75
2023/10/23 05:24:50;;;;;;;17.40;9.90;;;;;;;6.43;100.00;100784.88;4913838;28;20401;-75
2023/10/23 05:27:17;;;;;;;16.27;9.45;;;;;;;6.25;100.00;100774.06;4923733;28;20115;-74
2023/10/23 05:29:43;;;;;;;16.75;9.07;;;;;;;6.18;100.00;100764.97;4926878;28;20024;-75
2023/10/23 05:32:08;;;;;;;15.07;8.02;;;;;;;6.21;100.00;100778.81;4934927;28;20393;-74
2023/10/23 05:34:34;;;;;;;18.07;9.17;;;;;;;6.03;100.00;100769.78;4939183;28;20483;-74
2023/10/23 05:37:00;;;;;;;17.10;8.50;;;;;;;5.96;100.00;100773.94;4916012;28;20285;-75
2023/10/23 05:39:25;;;;;;;16.17;10.00;;;;;;;5.98;100.00;100777.31;4921047;28;20283;-76
2023/10/23 05:41:51;;;;;;;17.52;11.27;;;;;;;5.95;100.00;100769.59;4911323;28;20556;-75
2023/10/23 05:44:16;;;;;;;22.23;10.97;;;;;;;6.08;100.00;100786.97;4923159;28;20044;-74
2023/10/23 05:46:41;;;;;;;15.83;9.73;;;;;;;6.00;100.00;100788.63;4921818;28;20036;-75
2023/10/23 05:49:07;;;;;;;22.67;10.47;;;;;;;5.87;100.00;100783.47;4927930;29;20284;-76
2023/10/23 05:51:32;;;;;;;14.67;9.27;;;;;;;5.72;100.00;100773.22;4979102;28;20031;-75
2023/10/23 05:53:57;;;;;;;21.97;12.73;;;;;;;5.89;100.00;100795.63;4928249;28;20433;-74
2023/10/23 05:56:23;;;;;;;20.10;11.07;;;;;;;5.98;100.00;100809.13;4923158;28;20398;-76
2023/10/23 05:58:50;;;;;;;24.60;12.10;;;;;;;5.95;100.00;100806.69;4927840;28;20405;-75
2023/10/23 06:01:15;;;;;;;27.52;13.13;;;;;;;6.04;100.00;100817.38;4913051;28;20059;-75
2023/10/23 06:03:41;;;;;;;25.17;12.95;;;;;;;6.10;100.00;100823.97;4907741;29;20036;-75
2023/10/23 06:06:07;;;;;;;24.80;13.50;;;;;;;6.05;100.00;100823.53;4927188;28;20036;-75
2023/10/23 06:08:33;;;;;;;22.88;13.30;;;;;;;6.17;100.00;100832.22;4911572;28;20043;-75
2023/10/23 06:10:59;;;;;;;29.60;13.40;;;;;;;6.40;100.00;100857.59;4927897;28;20028;-75
2023/10/23 06:13:24;;;;;;;25.65;13.68;;;;;;;6.53;100.00;100870.63;4911732;28;20043;-75
2023/10/23 06:15:51;;;;;;;29.70;15.32;;;;;;;6.52;100.00;100864.47;4907047;28;20028;-75
2023/10/23 06:18:16;;;;;;;;;;;;;;;6.56;100.00;100867.72;4908427;28;20036;-76
2023/10/23 06:20:41;;;;;;;23.02;12.85;;;;;;;6.52;100.00;100858.34;4918982;29;20288;-75
2023/10/23 06:23:07;;;;;;;26.23;13.93;;;;;;;6.51;100.00;100868.13;4925290;28;20094;-74
2023/10/23 06:25:32;;;;;;;27.10;13.53;;;;;;;6.64;100.00;100862.56;4917747;29;20040;-75
2023/10/23 06:27:59;;;;;;;24.40;13.53;;;;;;;6.72;100.00;100862.75;4900506;29;20465;-75
2023/10/23 06:30:24;;;;;;;23.80;12.98;;;;;;;6.78;100.00;100866.69;4922021;29;20454;-74
2023/10/23 06:32:50;;;;;;;21.90;13.73;;;;;;;6.74;100.00;100860.81;4896160;29;20051;-76
2023/10/23 06:35:16;;;;;;;31.20;13.50;;;;;;;6.70;100.00;100855.91;4975808;28;20048;-76
2023/10/23 06:37:41;;;;;;;23.80;11.27;;;;;;;6.62;100.00;100853.06;4895721;29;20277;-74
2023/10/23 06:40:07;;;;;;;20.87;11.73;;;;;;;6.53;100.00;100846.75;4927331;28;20086;-75
2023/10/23 06:42:33;;;;;;;19.77;11.55;;;;;;;6.59;100.00;100853.34;4927219;28;20024;-76
2023/10/23 06:44:59;;;;;;;17.98;11.10;;;;;;;6.62;100.00;100843.28;4910592;28;20440;-75
2023/10/23 06:47:25;;;;;;;23.83;12.90;;;;;;;6.73;100.00;100856.47;4926841;28;20064;-76
2023/10/23 06:49:50;;;;;;;19.25;10.43;;;;;;;6.80;100.00;100855.94;4975802;28;20436;-75
2023/10/23 06:52:15;;;;;;;22.10;12.30;;;;;;;6.79;100.00;100851.59;4911445;29;20107;-74
2023/10/23 06:54:41;;;;;;;21.77;11.43;;;;;;;6.98;100.00;100856.97;4927433;29;20075;-75
2023/10/23 06:57:06;;;;;;;20.00;11.00;;;;;;;7.15;100.00;100860.75;4926482;29;20043;-76
2023/10/23 06:59:36;;;;;;;23.08;13.75;;;;;;;7.45;100.00;100878.41;4927021;28;20032;-75
2023/10/23 07:02:02;;;;;;;22.10;12.20;;;;;;;7.69;100.00;100888.63;4927139;29;20405;-74
2023/10/23 07:04:28;;;;;;;20.20;11.90;;;;;;;7.75;100.00;100874.78;4903013;28;20043;-77
2023/10/23 07:06:54;;;;;;;17.92;12.10;;;;;;;8.07;100.00;100888.72;4914389;28;20041;-76
2023/10/23 07:09:20;;;;;;;18.95;11.23;;;;;;;8.05;100.00;100883.53;4920555;28;20080;-75
2023/10/23 07:11:49;;;;;;;17.67;11.97;;;;;;;8.12;100.00;100879.31;4964730;28;20082;-75
2023/10/23 07:14:15;;;;;;;22.70;10.75;;;;;;;8.03;100.00;100870.41;4925056;28;20124;-76
2023/10/23 07:16:40;;;;;;;24.73;11.13;;;;;;;8.35;100.00;100879.00;4906099;28;20467;-75
2023/10/23 07:19:06;;;;;;;17.92;11.02;;;;;;;8.64;100.00;100876.28;4924522;29;20032;-75
2023/10/23 07:21:32;;;;;;;21.08;10.27;;;;;;;8.87;100.00;100871.38;4977006;28;20539;-75
2023/10/23 07:23:57;;;;;;;14.50;9.23;;;;;;;9.16;100.00;100863.22;4905376;28;20472;-75
2023/10/23 07:26:22;;;;;;;13.80;8.17;;;;;;;9.46;100.00;100861.19;4925092;28;20044;-75
2023/10/23 07:28:48;;;;;;;19.87;8.10;;;;;;;9.40;100.00;100835.97;4926541;29;20383;-76
2023/10/23 07:31:14;;;;;;;14.10;8.27;;;;;;;9.76;100.00;100835.09;4926536;28;20062;-75
2023/10/23 07:33:39;;;;;;;10.00;6.90;;;;;;;10.21;100.00;100829.59;4907428;28;20032;-76
2023/10/23 07:36:14;;;;;;;8.98;6.85;;;;;;;10.92;100.00;100817.72;4905107;28;20043;-76
2023/10/23 07:38:44;;;;;;;20.85;7.40;;;;;;;11.46;100.00;100777.22;4919439;28;20448;-75
2023/10/23 07:41:10;;;;;;;8.52;5.28;;;;;;;11.82;100.00;100716.16;4909628;28;20040;-76
2023/10/23 07:43:36;;;;;;;8.80;5.95;;;;;;;12.03;100.00;100662.13;4926312;28;20121;-75
2023/10/23 07:46:08;;;;;;;9.55;5.40;;;;;;;12.62;100.00;100644.72;4926022;28;20497;-76
2023/10/23 07:48:33;;;;;;;12.13;5.80;;;;;;;12.85;100.00;100508.06;4926312;28;20039;-75
2023/10/23 07:50:59;;;;;;;14.18;5.45;;;;;;;12.93;100.00;100398.13;4911692;28;20032;-75
2023/10/23 07:53:25;;;;;;;12.95;8.38;;;;;;;12.31;100.00;100203.06;4925936;28;20050;-75
2023/10/23 07:55:50;;;;;;;11.50;6.25;;;;;;;11.84;100.00;100255.91;4911377;28;20024;-75
2023/10/23 07:58:17;;;;;;;8.87;6.17;;;;;;;11.44;100.00;100275.84;4925877;28;20115;-75
2023/10/23 08:00:42;;;;;;;10.95;5.68;;;;;;;11.17;100.00;100284.22;4925967;28;20028;-75
2023/10/23 08:03:09;;;;;;;11.35;6.10;;;;;;;12.14;100.00;100381.72;4925857;28;20050;-75
2023/10/23 08:05:34;;;;;;;8.63;6.53;;;;;;;12.93;100.00;100408.84;4922589;28;20115;-75
2023/10/23 08:08:18;;;;;;;9.90;6.13;;;;;;;13.77;100.00;100056.13;4908943;28;20055;-75
2023/10/23 08:11:04;;;;;;;7.35;5.60;;;;;;;14.74;100.00;100004.66;4928411;28;20051;-75
2023/10/23 08:13:48;;;;;;;7.25;5.25;;;;;;;15.28;100.00;99738.34;4906230;29;20052;-75
2023/10/23 08:16:31;;;;;;;11.63;4.82;;;;;;;15.13;100.00;99606.94;4935647;28;20051;-76
2023/10/23 08:19:15;;;;;;;10.43;5.50;;;;;;;15.20;100.00;99557.44;4910772;29;20098;-76
2023/10/23 08:21:59;;;;;;;7.68;4.65;;;;;;;14.84;100.00;99573.47;4919949;28;20063;-76
2023/10/23 08:24:43;;;;;;;7.43;4.70;;;;;;;13.13;100.00;99679.28;4916106;28;20055;-76
2023/10/23 08:27:12;;;;;;;7.17;5.03;;;;;;;12.27;100.00;99928.78;4909351;28;20036;-76
2023/10/23 08:29:37;;;;;;;9.55;5.28;;;;;;;11.72;100.00;100028.22;4903214;28;20020;-76
2023/10/23 08:32:03;;;;;;;8.20;4.77;;;;;;;11.79;100.00;100261.81;4922524;28;20511;-76
2023/10/23 08:34:28;;;;;;;10.17;5.93;;;;;;;11.58;100.00;100344.56;4911023;28;20039;-76
2023/10/23 08:36:54;;;;;;;10.20;5.22;;;;;;;11.27;100.00;100478.22;4911236;28;20368;-76
2023/10/23 08:39:19;;;;;;;9.40;5.77;;;;;;;11.06;100.00;100566.97;4925518;28;20043;-76
2023/10/23 08:41:45;;;;;;;10.23;6.47;;;;;;;10.80;100.00;100541.31;4925638;28;20036;-76
2023/10/23 08:44:11;;;;;;;8.48;5.30;;;;;;;10.95;100.00;100597.53;4925527;29;20056;-75
2023/10/23 08:46:37;;;;;;;16.15;5.63;;;;;;;10.93;100.00;100576.34;4925024;28;20512;-76
2023/10/23 08:49:03;;;;;;;13.88;6.25;;;;;;;11.04;100.00;100671.31;4925619;29;20102;-76
2023/10/23 08:51:29;;;;;;;10.35;6.43;;;;;;;11.01;100.00;100689.53;4925382;29;20032;-76
2023/10/23 08:54:00;;;;;;;10.60;5.63;;;;;;;10.79;100.00;100673.13;4922885;28;20040;-76
2023/10/23 08:56:26;;;;;;;13.57;6.10;;;;;;;10.92;100.00;100704.72;4925113;28;20064;-75
2023/10/23 08:58:56;;;;;;;;;;;;;;;11.02;100.00;100699.22;4925677;28;20025;-76
2023/10/23 09:01:22;;;;;;;9.15;4.80;;;;;;;10.91;100.00;100695.88;4910637;28;20021;-76
2023/10/23 09:03:47;;;;;;;9.82;5.60;;;;;;;10.98;100.00;100691.53;4920198;29;20103;-75
2023/10/23 09:06:18;;;;;;;8.50;4.70;;;;;;;12.60;100.00;100855.63;4924833;28;20110;-76
2023/10/23 09:08:44;;;;;;;7.78;4.35;;;;;;;13.93;100.00;100530.75;4910872;28;20107;-76
2023/10/23 09:11:09;;;;;;;6.72;4.38;;;;;;;14.11;100.00;100157.19;4910102;28;20124;-76
2023/10/23 09:13:37;;;;;;;8.63;4.00;;;;;;;13.17;100.00;100066.47;4928354;29;20127;-76
2023/10/23 09:16:05;;;;;;;6.30;4.00;;;;;;;13.59;100.00;100332.91;4928353;28;20095;-75
2023/10/23 09:18:31;;;;;;;9.25;3.97;;;;;;;13.45;100.00;100078.00;4928225;28;20059;-76
2023/10/23 09:20:57;;;;;;;8.98;3.97;;;;;;;12.46;100.00;100016.47;4913925;28;20106;-75
2023/10/23 09:23:25;;;;;;;10.82;4.93;;;;;;;12.52;100.00;100157.59;4928246;28;20489;-75
2023/10/23 09:25:56;;;;;;;10.27;4.03;;;;;;;12.17;100.00;100315.28;4914990;28;20070;-75
2023/10/23 09:28:22;;;;;;;5.82;4.35;;;;;;;11.65;100.00;100224.34;4943973;28;20040;-75
2023/10/23 09:30:47;;;;;;;7.83;4.50;;;;;;;11.60;100.00;100420.91;4906171;28;20102;-75
2023/10/23 09:33:14;;;;;;;9.40;4.57;;;;;;;11.46;100.00;100435.03;4920222;28;20060;-75
2023/10/23 09:35:40;;;;;;;8.88;4.35;;;;;;;11.71;100.00;100582.81;4918918;28;20491;-76
2023/10/23 09:38:12;;;;;;;14.13;5.28;;;;;;;11.74;100.00;100514.75;4925853;28;20025;-75
2023/10/23 09:40:38;;;;;;;7.18;4.30;;;;;;;11.07;100.00;100467.09;4887893;29;20037;-75
2023/10/23 09:43:03;;;;;;;9.07;4.17;;;;;;;11.56;100.00;100697.66;4921117;28;20114;-76
2023/10/23 09:45:31;;;;;;;6.93;3.70;;;;;;;11.56;100.00;100648.69;4924563;28;20034;-75
2023/10/23 09:47:58;;;;;;;9.05;4.28;;;;;;;11.96;100.00;100671.84;4895236;28;20067;-75
2023/10/23 09:50:27;;;;;;;9.23;4.05;;;;;;;11.87;100.00;100581.94;4913012;28;20047;-75
2023/10/23 09:52:56;;;;;;;6.03;3.17;;;;;;;12.17;100.00;100625.72;4932404;28;20115;-76
2023/10/23 09:55:26;;;;;;;11.30;3.70;;;;;;;12.05;100.00;100570.94;4926812;28;20043;-75
2023/10/23 09:57:53;;;;;;;8.20;3.67;;;;;;;11.78;100.00;100569.56;4921460;28;20024;-75
2023/10/23 10:00:19;;;;;;;9.68;3.83;;;;;;;11.42;100.00;100676.97;4927468;28;20451;-75
2023/10/23 10:02:51;;;;;;;10.30;3.50;;;;;;;11.77;100.00;100776.50;4915006;28;20090;-75
2023/10/23 10:05:26;;;;;;;11.35;3.65;;;;;;;12.02;100.00;100772.00;4927655;28;20378;-75
2023/10/23 10:08:11;;;;;;;6.60;3.35;;;;;;;11.92;100.00;100688.41;4927718;28;20043;-76
2023/10/23 10:10:38;;;;;;;12.27;4.07;;;;;;;12.17;100.00;100730.09;4924241;28;20048;-75
2023/10/23 10:13:03;;;;;;;13.27;3.50;;;;;;;12.30;100.00;100775.06;4891851;28;20043;-76
2023/10/23 10:15:31;;;;;;;7.22;3.40;;;;;;;12.39;100.00;100698.25;4927523;28;20509;-75
2023/10/23 10:17:56;;;;;;;6.90;3.63;;;;;;;12.36;100.00;100720.00;4921547;28;20111;-75
2023/10/23 10:20:23;;;;;;;5.68;3.70;;;;;;;12.17;100.00;100657.00;4906030;28;20132;-75
2023/10/23 10:23:04;;;;;;;12.10;3.72;;;;;;;11.99;100.00;100659.97;4907663;28;20032;-75
2023/10/23 10:25:31;;;;;;;6.00;3.50;;;;;;;12.11;100.00;100744.19;4914949;28;20041;-75
2023/10/23 10:27:57;;;;;;;9.65;3.50;;;;;;;12.25;100.00;100791.66;4890741;29;20135;-75
2023/10/23 10:30:41;;;;;;;9.45;3.75;;;;;;;12.36;100.00;100838.66;4918868;29;20059;-75
2023/10/23 10:33:22;;;;;;;9.27;3.17;;;;;;;12.32;100.00;100737.44;4918992;28;20040;-75
2023/10/23 10:35:55;;;;;;;6.25;3.72;;;;;;;12.41;100.00;100707.78;4927218;29;20036;-75
2023/10/23 10:38:22;;;;;;;9.52;3.60;;;;;;;12.29;100.00;100670.84;4910614;28;20041;-75
2023/10/23 10:40:56;;;;;;;7.75;3.85;;;;;;;12.45;100.00;100686.81;4912022;28;20104;-75
2023/10/23 10:43:23;;;;;;;9.45;3.47;;;;;;;12.60;100.00;100612.75;4899511;29;20040;-75
2023/10/23 10:45:49;;;;;;;7.13;3.50;;;;;;;12.41;100.00;100503.47;4894734;28;20102;-75
2023/10/23 10:48:15;;;;;;;6.60;3.47;;;;;;;12.20;100.00;100552.31;4923803;28;20493;-76
2023/10/23 10:50:41;;;;;;;10.07;4.13;;;;;;;13.11;100.00;100596.06;4918145;28;20052;-75
2023/10/23 10:53:12;;;;;;;4.57;2.88;;;;;;;14.62;100.00;100443.41;4898969;28;20096;-76
2023/10/23 10:55:37;;;;;;;8.25;3.38;;;;;;;14.28;100.00;100120.91;4907724;29;20044;-76
2023/10/23 10:58:04;;;;;;;7.77;3.60;;;;;;;13.71;100.00;100055.03;4926753;28;20024;-76
2023/10/23 11:00:33;;;;;;;;;;;;;;;14.17;100.00;100156.38;4908514;29;20041;-76
2023/10/23 11:02:59;;;;;;;5.55;2.42;;;;;;;14.70;100.00;100118.13;4904963;29;20324;-76
2023/10/23 11:05:25;;;;;;;4.10;2.13;;;;;;;15.60;100.00;100016.25;4904278;29;20045;-76
2023/10/23 11:07:51;;;;;;;4.43;2.28;;;;;;;16.44;100.00;99990.13;4904515;28;20029;-76
2023/10/23 11:10:20;;;;;;;6.25;2.28;;;;;;;17.39;100.00;99727.31;4905008;28;20043;-76
2023/10/23 11:12:46;;;;;;;7.65;2.35;;;;;;;17.41;100.00;99410.34;4904993;28;20120;-76
2023/10/23 11:15:13;;;;;;;11.63;2.60;;;;;;;17.52;100.00;99171.25;4904056;28;20138;-76
2023/10/23 11:17:40;;;;;;;8.55;2.45;;;;;;;16.75;100.00;98892.34;4892716;28;20037;-76